»·PEaware :: N182SM L45-KSBA

N182SM :: L45-KSBA

FLIGHT INFORMATION

Flight Status: Arrived
Operator: Privately registered:
United States
More flights under this callsign
Pilot: Scott M. (7919)
Aircraft: CESSNA 182 SKYLANE
(C182)
More flights by this aircraft type
Origin: L45 Bakersfield Mun
United States
Destination: KSBA Santa Barbara Mun
United States
More flights between these airports :: More routes between these airports
Route: +STIGR2 STIGR V183 RZS
File this flight plan on PilotEdge
Remarks:
Altitude:
(Current/Filed)
8,000ft
Speed:
(Current/Filed)
145kts
Departed: 30-Dec-17 02:58 PM
Arrived: 30-Dec-17 03:43 PM
Distance/Time
Traveled:
68nm/0:45
Distance/Time
To Go:
Arrived

Flight Plot

Page will automatically refresh every two minutes.

Flight plan parsing failed; only flown route is shown


Map Options




Map Legend


Flown Route
Filed Route
Departure Airport
Arrival Airport
Navaid (VOR, NDB)
Fix

Horizontal Profiles

Position Reports

Time Latitude Longitude Heading Altitude Ground
Speed
30-Dec-17 14:49 35.326263 -118.998302 359 379ft 0kts
30-Dec-17 14:50 35.326263 -118.998302 359 379ft 0kts
30-Dec-17 14:51 35.326263 -118.998302 359 379ft 0kts
30-Dec-17 14:52 35.326263 -118.998302 359 379ft 0kts
30-Dec-17 14:53 35.326362 -118.997748 91 379ft 4kts
30-Dec-17 14:54 35.323756 -118.997006 177 379ft 17kts
30-Dec-17 14:55 35.319724 -118.996354 215 379ft 16kts
30-Dec-17 14:56 35.319305 -118.996428 127 379ft 0kts
30-Dec-17 14:57 35.319305 -118.996428 127 379ft 0kts
30-Dec-17 14:58 35.319305 -118.996428 127 379ft 0kts
30-Dec-17 14:59 35.319305 -118.996428 127 379ft 0kts
30-Dec-17 15:00 35.319305 -118.996428 127 379ft 0kts
30-Dec-17 15:01 35.319305 -118.996428 127 379ft 0kts
30-Dec-17 15:02 35.319305 -118.996428 127 379ft 0kts
30-Dec-17 15:03 35.319333 -118.996123 66 379ft 4kts
30-Dec-17 15:04 35.323650 -118.995880 351 480ft 80kts
30-Dec-17 15:05 35.337408 -119.012082 259 2101ft 106kts
30-Dec-17 15:06 35.344664 -119.044216 266 3024ft 107kts
30-Dec-17 15:07 35.345189 -119.085344 262 3051ft 129kts
30-Dec-17 15:08 35.342333 -119.132662 266 3001ft 144kts
30-Dec-17 15:09 35.340533 -119.181493 267 3000ft 143kts
30-Dec-17 15:10 35.312852 -119.211748 212 3094ft 137kts
30-Dec-17 15:11 35.282260 -119.238479 209 3584ft 136kts
30-Dec-17 15:12 35.249553 -119.261480 209 4082ft 135kts
30-Dec-17 15:13 35.216894 -119.284215 209 4581ft 134kts
30-Dec-17 15:14 35.184547 -119.306710 209 5078ft 133kts
30-Dec-17 15:15 35.152348 -119.329067 209 5576ft 133kts
30-Dec-17 15:16 35.121109 -119.350816 209 6517ft 128kts
30-Dec-17 15:17 35.090216 -119.372244 209 7514ft 127kts
30-Dec-17 15:18 35.057378 -119.395078 209 7920ft 150kts
30-Dec-17 15:19 35.020146 -119.420869 209 7917ft 155kts
30-Dec-17 15:20 34.982594 -119.446817 209 7917ft 155kts
30-Dec-17 15:21 34.945572 -119.472491 209 7918ft 154kts
30-Dec-17 15:22 34.908253 -119.498246 209 7917ft 154kts
30-Dec-17 15:23 34.871072 -119.523862 209 7917ft 154kts
30-Dec-17 15:24 34.833687 -119.549420 209 7917ft 154kts
30-Dec-17 15:25 34.796286 -119.575110 209 7917ft 154kts
30-Dec-17 15:26 34.758864 -119.600798 209 7917ft 154kts
30-Dec-17 15:27 34.721423 -119.626472 209 7917ft 154kts
30-Dec-17 15:28 34.684203 -119.651958 208 7917ft 154kts
30-Dec-17 15:29 34.646799 -119.677553 208 7917ft 153kts
30-Dec-17 15:30 34.609718 -119.702901 208 7917ft 153kts
30-Dec-17 15:31 34.578846 -119.723971 208 7917ft 153kts
30-Dec-17 15:32 34.535531 -119.753482 208 7917ft 153kts
30-Dec-17 15:33 34.504522 -119.774056 209 7918ft 152kts
30-Dec-17 15:34 34.468987 -119.752803 152 7916ft 152kts
30-Dec-17 15:35 34.422468 -119.729841 158 7678ft 161kts
30-Dec-17 15:36 34.380321 -119.709578 170 7156ft 164kts
30-Dec-17 15:37 34.359505 -119.685332 85 6285ft 171kts
30-Dec-17 15:38 34.345403 -119.627662 144 5379ft 167kts
30-Dec-17 15:39 34.311792 -119.611252 156 5114ft 150kts
30-Dec-17 15:40 34.301107 -119.570317 49 4782ft 150kts
30-Dec-17 15:41 34.332282 -119.585784 291 4177ft 159kts
30-Dec-17 15:42 34.353196 -119.630904 296 3690ft 158kts
30-Dec-17 15:43 34.371792 -119.677977 297 3109ft 144kts
30-Dec-17 15:44 34.387181 -119.717925 292 2768ft 123kts
30-Dec-17 15:45 34.400562 -119.752924 295 1673ft 103kts
30-Dec-17 15:46 34.411873 -119.783252 294 842ft 86kts
30-Dec-17 15:47 34.421840 -119.810040 301 334ft 75kts
30-Dec-17 15:48 34.426929 -119.833984 296 231ft 63kts
30-Dec-17 15:49 34.427979 -119.846137 340 17ft 17kts
30-Dec-17 15:50 34.428541 -119.846184 352 17ft 0kts
30-Dec-17 15:51 34.429603 -119.845958 44 17ft 0kts

Navigation Log

Ident Type
Flight plan parsing failed, navigation log unavailable